Time;durP1;ratioP1;P1;durP2;ratioP2;P2;SDS_P1;SDS_P2;PMS_P1;PMS_P2;Temp;Humidity;BMP_temperature;BMP_pressure;BME280_temperature;BME280_humidity;BME280_pressure;Samples;Min_cycle;Max_cycle;Signal;HPM_P1;HPM_P2
2024/04/17 00:01:31;;;;;;;;;;;;;;;;;;5393885;26;19937;-68
2024/04/17 00:03:57;;;;;;;;;;;;;;;;;;5405986;26;20378;-68
2024/04/17 00:06:24;;;;;;;;;;;;;;;;;;5372605;26;19942;-69
2024/04/17 00:08:49;;;;;;;;;;;;;;;;;;5407450;26;19997;-67
2024/04/17 00:11:15;;;;;;;;;;;;;;;;;;5406297;26;19949;-68
2024/04/17 00:13:40;;;;;;;;;;;;;;;;;;5344848;26;19972;-67
2024/04/17 00:16:06;;;;;;;;;;;;;;;;;;5407652;26;20165;-67
2024/04/17 00:18:31;;;;;;;;;;;;;;;;;;5407627;26;20000;-68
2024/04/17 00:20:56;;;;;;;;;;;;;;;;;;5396111;26;21057;-66
2024/04/17 00:23:22;;;;;;;;;;;;;;;;;;5406475;26;20018;-66
2024/04/17 00:25:47;;;;;;;;;;;;;;;;;;5407686;26;20398;-68
2024/04/17 00:28:12;;;;;;;;;;;;;;;;;;5406252;26;19940;-68
2024/04/17 00:30:40;;;;;;;;;;;;;;;;;;5381826;26;19929;-67
2024/04/17 00:33:06;;;;;;;;;;;;;;;;;;5408846;26;19933;-67
2024/04/17 00:35:32;;;;;;;;;;;;;;;;;;5391695;26;19928;-68
2024/04/17 00:37:57;;;;;;;;;;;;;;;;;;5392676;26;19951;-67
2024/04/17 00:40:22;;;;;;;;;;;;;;;;;;5375785;26;20441;-66
2024/04/17 00:42:48;;;;;;;;;;;;;;;;;;5376289;26;19947;-68
2024/04/17 00:45:15;;;;;;;;;;;;;;;;;;5408312;26;19929;-67
2024/04/17 00:47:41;;;;;;;;;;;;;;;;;;5379370;26;19932;-66
2024/04/17 00:50:06;;;;;;;;;;;;;;;;;;5383363;26;19940;-65
2024/04/17 00:52:33;;;;;;;;;;;;;;;;;;5404545;26;19994;-66
2024/04/17 00:55:04;;;;;;;;;;;;;;;;;;5405299;26;19929;-65
2024/04/17 00:57:29;;;;;;;;;;;;;;;;;;5382536;26;19943;-66
2024/04/17 00:59:54;;;;;;;;;;;;;;;;;;5375458;26;20034;-66
2024/04/17 01:02:22;;;;;;;;;;;;;;;;;;5410581;26;19928;-67
2024/04/17 01:04:50;;;;;;;;;;;;;;;;;;5346449;26;19928;-68
2024/04/17 01:07:15;;;;;;;;;;;;;;;;;;5405046;26;19963;-67
2024/04/17 01:09:44;;;;;;;;;;;;;;;;;;5408507;26;19928;-67
2024/04/17 01:12:09;;;;;;;;;;;;;;;;;;5408597;26;19929;-67
2024/04/17 01:14:37;;;;;;;;;;;;;;;;;;5374334;26;19941;-66
2024/04/17 01:17:02;;;;;;;;;;;;;;;;;;5407015;26;19936;-68
2024/04/17 01:19:27;;;;;;;;;;;;;;;;;;5375874;26;19936;-67
2024/04/17 01:21:55;;;;;;;;;;;;;;;;;;5406788;26;21038;-66
2024/04/17 01:24:20;;;;;;;;;;;;;;;;;;5406479;26;19940;-67
2024/04/17 01:26:48;;;;;;;;;;;;;;;;;;5375297;26;21200;-67
2024/04/17 01:29:14;;;;;;;;;;;;;;;;;;5380998;26;19936;-70
2024/04/17 01:31:40;;;;;;;;;;;;;;;;;;5385695;26;19945;-67
2024/04/17 01:34:05;;;;;;;;;;;;;;;;;;5406130;26;21305;-67
2024/04/17 01:36:33;;;;;;;;;;;;;;;;;;5372606;26;20184;-68
2024/04/17 01:39:01;;;;;;;;;;;;;;;;;;5409593;26;20127;-67
2024/04/17 01:41:29;;;;;;;;;;;;;;;;;;5404936;26;19948;-68
2024/04/17 01:43:54;;;;;;;;;;;;;;;;;;5376135;26;19944;-68
2024/04/17 01:46:22;;;;;;;;;;;;;;;;;;5370748;26;19935;-67
2024/04/17 01:48:47;;;;;;;;;;;;;;;;;;5386187;26;19936;-67
2024/04/17 01:51:12;;;;;;;;;;;;;;;;;;5341404;26;22607;-68
2024/04/17 01:53:40;;;;;;;;;;;;;;;;;;5405398;26;19955;-67
2024/04/17 01:56:05;;;;;;;;;;;;;;;;;;5370102;26;19936;-68
2024/04/17 01:58:30;;;;;;;;;;;;;;;;;;5407603;26;19940;-68
2024/04/17 02:00:55;;;;;;;;;;;;;;;;;;5409532;26;19928;-68
2024/04/17 02:03:24;;;;;;;;;;;;;;;;;;5376600;26;19937;-67
2024/04/17 02:05:49;;;;;;;;;;;;;;;;;;5409492;26;20031;-68
2024/04/17 02:08:14;;;;;;;;;;;;;;;;;;5407114;26;19936;-68
2024/04/17 02:10:42;;;;;;;;;;;;;;;;;;5373002;26;19929;-69
2024/04/17 02:13:07;;;;;;;;;;;;;;;;;;5405407;26;19957;-68
2024/04/17 02:15:32;;;;;;;;;;;;;;;;;;5377069;26;20240;-69
2024/04/17 02:17:58;;;;;;;;;;;;;;;;;;5372044;26;20005;-68
2024/04/17 02:20:25;;;;;;;;;;;;;;;;;;5374250;26;19944;-67
2024/04/17 02:22:54;;;;;;;;;;;;;;;;;;5354061;26;19928;-66
2024/04/17 02:25:21;;;;;;;;;;;;;;;;;;5375168;26;19936;-67
2024/04/17 02:27:49;;;;;;;;;;;;;;;;;;5406251;26;19933;-65
2024/04/17 02:30:17;;;;;;;;;;;;;;;;;;5386394;26;20072;-67
2024/04/17 02:32:45;;;;;;;;;;;;;;;;;;5407386;26;20422;-66
2024/04/17 02:35:10;;;;;;;;;;;;;;;;;;5372062;26;19937;-66
2024/04/17 02:37:35;;;;;;;;;;;;;;;;;;5369071;26;20029;-66
2024/04/17 02:40:03;;;;;;;;;;;;;;;;;;5373434;26;19948;-66
2024/04/17 02:42:29;;;;;;;;;;;;;;;;;;5402732;26;20031;-66
2024/04/17 02:44:54;;;;;;;;;;;;;;;;;;5406793;26;19929;-65
2024/04/17 02:47:19;;;;;;;;;;;;;;;;;;5376391;26;19929;-66
2024/04/17 02:49:45;;;;;;;;;;;;;;;;;;5408388;26;19975;-65
2024/04/17 02:52:10;;;;;;;;;;;;;;;;;;5409409;26;19940;-67
2024/04/17 02:54:38;;;;;;;;;;;;;;;;;;5373711;26;19933;-69
2024/04/17 02:57:09;;;;;;;;;;;;;;;;;;5404556;26;19970;-65
2024/04/17 02:59:37;;;;;;;;;;;;;;;;;;5384753;26;20010;-67
2024/04/17 03:02:03;;;;;;;;;;;;;;;;;;5408311;26;21221;-65
2024/04/17 03:04:33;;;;;;;;;;;;;;;;;;5408386;26;19935;-66
2024/04/17 03:06:58;;;;;;;;;;;;;;;;;;5406638;26;19947;-65
2024/04/17 03:09:23;;;;;;;;;;;;;;;;;;5372088;26;19936;-65
2024/04/17 03:11:51;;;;;;;;;;;;;;;;;;5404387;26;19932;-66
2024/04/17 03:14:16;;;;;;;;;;;;;;;;;;5405057;26;19995;-66
2024/04/17 03:16:42;;;;;;;;;;;;;;;;;;5343923;26;19936;-67
2024/04/17 03:19:07;;;;;;;;;;;;;;;;;;5401533;26;20013;-66
2024/04/17 03:21:32;;;;;;;;;;;;;;;;;;5371287;26;19978;-67
2024/04/17 03:23:57;;;;;;;;;;;;;;;;;;5345570;26;19999;-67
2024/04/17 03:26:25;;;;;;;;;;;;;;;;;;5405133;26;19961;-67
2024/04/17 03:28:50;;;;;;;;;;;;;;;;;;5377851;26;20102;-68
2024/04/17 03:31:15;;;;;;;;;;;;;;;;;;5408437;26;20615;-67
2024/04/17 03:33:41;;;;;;;;;;;;;;;;;;5407973;26;19967;-67
2024/04/17 03:36:07;;;;;;;;;;;;;;;;;;5409340;26;19940;-67
2024/04/17 03:38:32;;;;;;;;;;;;;;;;;;5376721;26;19944;-68
2024/04/17 03:40:58;;;;;;;;;;;;;;;;;;5372730;26;19936;-66
2024/04/17 03:43:26;;;;;;;;;;;;;;;;;;5405831;26;19941;-69
2024/04/17 03:45:51;;;;;;;;;;;;;;;;;;5406825;26;19939;-68
2024/04/17 03:48:19;;;;;;;;;;;;;;;;;;5407456;26;19936;-68
2024/04/17 03:50:45;;;;;;;;;;;;;;;;;;5408649;26;19936;-68
2024/04/17 03:53:10;;;;;;;;;;;;;;;;;;5407117;26;20021;-67
2024/04/17 03:55:35;;;;;;;;;;;;;;;;;;5345557;26;19990;-68
2024/04/17 03:58:00;;;;;;;;;;;;;;;;;;5409911;26;19948;-69
2024/04/17 04:00:26;;;;;;;;;;;;;;;;;;5409744;26;19949;-68
2024/04/17 04:02:53;;;;;;;;;;;;;;;;;;5381210;26;19990;-68
2024/04/17 04:05:21;;;;;;;;;;;;;;;;;;5378061;26;20363;-68
2024/04/17 04:07:50;;;;;;;;;;;;;;;;;;5377110;26;19941;-67
2024/04/17 04:10:15;;;;;;;;;;;;;;;;;;5376256;26;20332;-66
2024/04/17 04:12:40;;;;;;;;;;;;;;;;;;5390055;26;20059;-68
2024/04/17 04:15:07;;;;;;;;;;;;;;;;;;5408286;26;20017;-69
2024/04/17 04:17:32;;;;;;;;;;;;;;;;;;5381919;26;20039;-68
2024/04/17 04:19:57;;;;;;;;;;;;;;;;;;5408170;26;19935;-68
2024/04/17 04:22:25;;;;;;;;;;;;;;;;;;5407942;26;19944;-66
2024/04/17 04:24:51;;;;;;;;;;;;;;;;;;5405245;26;20342;-68
2024/04/17 04:27:19;;;;;;;;;;;;;;;;;;5408911;26;19929;-67
2024/04/17 04:29:44;;;;;;;;;;;;;;;;;;5404700;26;20088;-69
2024/04/17 04:32:14;;;;;;;;;;;;;;;;;;5359045;26;19943;-69
2024/04/17 04:34:42;;;;;;;;;;;;;;;;;;5355694;26;19979;-68
2024/04/17 04:37:07;;;;;;;;;;;;;;;;;;5377771;26;20057;-72
2024/04/17 04:39:32;;;;;;;;;;;;;;;;;;5373448;26;19936;-70
2024/04/17 04:41:59;;;;;;;;;;;;;;;;;;5411263;26;19933;-75
2024/04/17 04:44:27;;;;;;;;;;;;;;;;;;5387555;26;19944;-69
2024/04/17 04:46:53;;;;;;;;;;;;;;;;;;5351885;26;19996;-75
2024/04/17 04:49:21;;;;;;;;;;;;;;;;;;5373465;26;19964;-72
2024/04/17 04:51:47;;;;;;;;;;;;;;;;;;5410799;26;20501;-69
2024/04/17 04:54:12;;;;;;;;;;;;;;;;;;5376925;26;20309;-72
2024/04/17 04:56:37;;;;;;;;;;;;;;;;;;5410200;26;19956;-74
2024/04/17 04:59:03;;;;;;;;;;;;;;;;;;5378633;26;19928;-74
2024/04/17 05:01:28;;;;;;;;;;;;;;;;;;5376023;26;19968;-72
2024/04/17 05:03:56;;;;;;;;;;;;;;;;;;5377342;26;19928;-76
2024/04/17 05:06:22;;;;;;;;;;;;;;;;;;5415942;26;19959;-73
2024/04/17 05:08:50;;;;;;;;;;;;;;;;;;5395974;26;19947;-76
2024/04/17 05:11:18;;;;;;;;;;;;;;;;;;5387134;26;19932;-73
2024/04/17 05:13:48;;;;;;;;;;;;;;;;;;5380934;26;19940;-76
2024/04/17 05:16:13;;;;;;;;;;;;;;;;;;5389499;26;20325;-77
2024/04/17 05:18:38;;;;;;;;;;;;;;;;;;5354612;26;19943;-76
2024/04/17 05:21:06;;;;;;;;;;;;;;;;;;5416659;26;19941;-73
2024/04/17 05:23:31;;;;;;;;;;;;;;;;;;5409136;26;20078;-72
2024/04/17 05:25:56;;;;;;;;;;;;;;;;;;5411898;26;19928;-72
2024/04/17 05:28:24;;;;;;;;;;;;;;;;;;5352076;26;20936;-74
2024/04/17 05:30:49;;;;;;;;;;;;;;;;;;5385212;26;19986;-72
2024/04/17 05:33:17;;;;;;;;;;;;;;;;;;5381940;26;19935;-69
2024/04/17 05:35:45;;;;;;;;;;;;;;;;;;5418052;26;19972;-70
2024/04/17 05:38:10;;;;;;;;;;;;;;;;;;5376790;26;19997;-71
2024/04/17 05:40:38;;;;;;;;;;;;;;;;;;5411693;26;19965;-70
2024/04/17 05:43:03;;;;;;;;;;;;;;;;;;5349825;26;19943;-72
2024/04/17 05:45:34;;;;;;;;;;;;;;;;;;5379993;26;19929;-70
2024/04/17 05:47:59;;;;;;;;;;;;;;;;;;5386111;26;20013;-72
2024/04/17 05:50:24;;;;;;;;;;;;;;;;;;5388505;26;20621;-71
2024/04/17 05:52:50;;;;;;;;;;;;;;;;;;5408583;26;19937;-71
2024/04/17 05:55:15;;;;;;;;;;;;;;;;;;5348752;26;20312;-70
2024/04/17 05:57:44;;;;;;;;;;;;;;;;;;5409403;26;19940;-70
2024/04/17 06:00:12;;;;;;;;;;;;;;;;;;5379127;26;19943;-71
2024/04/17 06:02:41;;;;;;;;;;;;;;;;;;5417274;26;20056;-72
2024/04/17 06:05:06;;;;;;;;;;;;;;;;;;5391321;26;19939;-73
2024/04/17 06:07:31;;;;;;;;;;;;;;;;;;5391092;26;19943;-73
2024/04/17 06:09:57;;;;;;;;;;;;;;;;;;5409544;26;19933;-73
2024/04/17 06:12:22;;;;;;;;;;;;;;;;;;5381692;26;21058;-72
2024/04/17 06:14:47;;;;;;;;;;;;;;;;;;5376375;26;20306;-75
2024/04/17 06:17:13;;;;;;;;;;;;;;;;;;5380526;26;20555;-74
2024/04/17 06:19:40;;;;;;;;;;;;;;;;;;5382050;26;20002;-75
2024/04/17 06:22:06;;;;;;;;;;;;;;;;;;5376285;26;20810;-73
2024/04/17 06:24:34;;;;;;;;;;;;;;;;;;5380871;26;19979;-74
2024/04/17 06:27:00;;;;;;;;;;;;;;;;;;5375456;26;22387;-75
2024/04/17 06:29:25;;;;;;;;;;;;;;;;;;5375481;26;21398;-74
2024/04/17 06:31:51;;;;;;;;;;;;;;;;;;5376206;26;19937;-74
2024/04/17 06:34:16;;;;;;;;;;;;;;;;;;5412107;26;19947;-74
2024/04/17 06:36:42;;;;;;;;;;;;;;;;;;5408662;26;19961;-75
2024/04/17 06:39:07;;;;;;;;;;;;;;;;;;5390292;26;19993;-74
2024/04/17 06:41:37;;;;;;;;;;;;;;;;;;5347019;26;19942;-72
2024/04/17 06:44:02;;;;;;;;;;;;;;;;;;5407558;26;19953;-75
2024/04/17 06:46:30;;;;;;;;;;;;;;;;;;5406526;26;19962;-74
2024/04/17 06:48:55;;;;;;;;;;;;;;;;;;5377260;26;19971;-75
2024/04/17 06:51:22;;;;;;;;;;;;;;;;;;5374367;26;19933;-75
2024/04/17 06:53:50;;;;;;;;;;;;;;;;;;5345071;26;19939;-74
2024/04/17 06:56:15;;;;;;;;;;;;;;;;;;5409048;26;19940;-73
2024/04/17 06:58:40;;;;;;;;;;;;;;;;;;5373360;26;19940;-74
2024/04/17 07:01:08;;;;;;;;;;;;;;;;;;5344410;26;20450;-73
2024/04/17 07:03:34;;;;;;;;;;;;;;;;;;5404571;26;19936;-73
2024/04/17 07:05:59;;;;;;;;;;;;;;;;;;5407947;26;19948;-74
2024/04/17 07:08:24;;;;;;;;;;;;;;;;;;5373752;26;20362;-73
2024/04/17 07:10:49;;;;;;;;;;;;;;;;;;5404397;26;19956;-74
2024/04/17 07:13:15;;;;;;;;;;;;;;;;;;5374041;26;19940;-73
2024/04/17 07:15:40;;;;;;;;;;;;;;;;;;5406487;26;20026;-74
2024/04/17 07:18:10;;;;;;;;;;;;;;;;;;5372456;26;19947;-73
2024/04/17 07:20:36;;;;;;;;;;;;;;;;;;5408404;26;20451;-72
2024/04/17 07:23:02;;;;;;;;;;;;;;;;;;5382366;26;19929;-74
2024/04/17 07:25:27;;;;;;;;;;;;;;;;;;5348564;26;20275;-73
2024/04/17 07:27:55;;;;;;;;;;;;;;;;;;5375507;26;19936;-73
2024/04/17 07:30:25;;;;;;;;;;;;;;;;;;5374342;26;19929;-69
2024/04/17 07:32:50;;;;;;;;;;;;;;;;;;5371786;26;19929;-70
2024/04/17 07:35:15;;;;;;;;;;;;;;;;;;5375483;26;19929;-70
2024/04/17 07:37:41;;;;;;;;;;;;;;;;;;5406006;26;19940;-69
2024/04/17 07:40:06;;;;;;;;;;;;;;;;;;5402677;26;19936;-70
2024/04/17 07:42:31;;;;;;;;;;;;;;;;;;5405830;26;19928;-70
2024/04/17 07:44:56;;;;;;;;;;;;;;;;;;5406552;26;20245;-72
2024/04/17 07:47:24;;;;;;;;;;;;;;;;;;5373410;26;19936;-72
2024/04/17 07:49:49;;;;;;;;;;;;;;;;;;5350368;26;20343;-72
2024/04/17 07:52:15;;;;;;;;;;;;;;;;;;5371886;26;19937;-72
2024/04/17 07:54:45;;;;;;;;;;;;;;;;;;5374386;26;19929;-72
2024/04/17 07:57:13;;;;;;;;;;;;;;;;;;5404723;26;19952;-69
2024/04/17 07:59:38;;;;;;;;;;;;;;;;;;5415315;26;19929;-73
2024/04/17 08:02:04;;;;;;;;;;;;;;;;;;5414096;26;19943;-77
2024/04/17 08:04:31;;;;;;;;;;;;;;;;;;5348595;26;19940;-70
2024/04/17 08:06:57;;;;;;;;;;;;;;;;;;5403398;26;19948;-70
2024/04/17 08:09:25;;;;;;;;;;;;;;;;;;5377242;26;20180;-69
2024/04/17 08:11:52;;;;;;;;;;;;;;;;;;5406450;26;19929;-70
2024/04/17 08:14:20;;;;;;;;;;;;;;;;;;5344302;26;20497;-74
2024/04/17 08:16:48;;;;;;;;;;;;;;;;;;5375091;26;20003;-68
2024/04/17 08:19:21;;;;;;;;;;;;;;;;;;5378588;26;19944;-68
2024/04/17 08:21:46;;;;;;;;;;;;;;;;;;5342800;26;20012;-68
2024/04/17 08:24:11;;;;;;;;;;;;;;;;;;5409587;26;19936;-67
2024/04/17 08:26:37;;;;;;;;;;;;;;;;;;5408112;26;20444;-68
2024/04/17 08:29:02;;;;;;;;;;;;;;;;;;5377053;26;19933;-67
2024/04/17 08:31:27;;;;;;;;;;;;;;;;;;5409749;26;19936;-67
2024/04/17 08:33:53;;;;;;;;;;;;;;;;;;5410028;26;19928;-67
2024/04/17 08:36:18;;;;;;;;;;;;;;;;;;5376178;26;19935;-66
2024/04/17 08:38:43;;;;;;;;;;;;;;;;;;5409962;26;19929;-66
2024/04/17 08:41:09;;;;;;;;;;;;;;;;;;5383333;26;19940;-67
2024/04/17 08:43:34;;;;;;;;;;;;;;;;;;5375197;26;22658;-67
2024/04/17 08:45:59;;;;;;;;;;;;;;;;;;5409189;26;19987;-66
2024/04/17 08:48:27;;;;;;;;;;;;;;;;;;5374808;26;19929;-66
2024/04/17 08:50:52;;;;;;;;;;;;;;;;;;5386566;26;19948;-68
2024/04/17 08:53:20;;;;;;;;;;;;;;;;;;5405864;26;19929;-68
2024/04/17 08:55:45;;;;;;;;;;;;;;;;;;5374848;26;20380;-67
2024/04/17 08:58:10;;;;;;;;;;;;;;;;;;5375413;26;19976;-66
2024/04/17 09:00:38;;;;;;;;;;;;;;;;;;5373577;26;19957;-67
2024/04/17 09:03:06;;;;;;;;;;;;;;;;;;5388974;26;19937;-67
2024/04/17 09:05:31;;;;;;;;;;;;;;;;;;5408461;26;19940;-66
2024/04/17 09:07:58;;;;;;;;;;;;;;;;;;5373836;26;19936;-66
2024/04/17 09:10:23;;;;;;;;;;;;;;;;;;5357394;26;19936;-65
2024/04/17 09:12:51;;;;;;;;;;;;;;;;;;5387902;26;19929;-66
2024/04/17 09:15:19;;;;;;;;;;;;;;;;;;5376515;26;22283;-67
2024/04/17 09:17:45;;;;;;;;;;;;;;;;;;5370451;26;20335;-67
2024/04/17 09:20:10;;;;;;;;;;;;;;;;;;5375695;26;19976;-67
2024/04/17 09:22:35;;;;;;;;;;;;;;;;;;5374845;26;19967;-67
2024/04/17 09:25:22;;;;;;;;;;;;;;;;;;5407427;26;20375;-66
2024/04/17 09:27:50;;;;;;;;;;;;;;;;;;5378036;26;20203;-66
2024/04/17 09:30:18;;;;;;;;;;;;;;;;;;5374682;26;19929;-68
2024/04/17 09:32:49;;;;;;;;;;;;;;;;;;5374290;26;19928;-67
2024/04/17 09:35:19;;;;;;;;;;;;;;;;;;5375754;26;20073;-67
2024/04/17 09:37:49;;;;;;;;;;;;;;;;;;5408111;26;20121;-66
2024/04/17 09:40:16;;;;;;;;;;;;;;;;;;5385943;26;20040;-67
2024/04/17 09:42:42;;;;;;;;;;;;;;;;;;5384007;26;19940;-65
2024/04/17 09:45:11;;;;;;;;;;;;;;;;;;5384317;26;20426;-67
2024/04/17 09:47:39;;;;;;;;;;;;;;;;;;5405485;26;19940;-67
2024/04/17 09:50:04;;;;;;;;;;;;;;;;;;5387713;26;19963;-67
2024/04/17 09:52:32;;;;;;;;;;;;;;;;;;5406685;26;19984;-67
2024/04/17 09:54:57;;;;;;;;;;;;;;;;;;5407078;26;19936;-67
2024/04/17 09:57:25;;;;;;;;;;;;;;;;;;5407892;26;19943;-68
2024/04/17 09:59:50;;;;;;;;;;;;;;;;;;5409767;26;21203;-66
2024/04/17 10:02:15;;;;;;;;;;;;;;;;;;5408108;26;19981;-66
2024/04/17 10:04:41;;;;;;;;;;;;;;;;;;5346703;26;19936;-66
2024/04/17 10:07:07;;;;;;;;;;;;;;;;;;5383915;26;19940;-66
2024/04/17 10:09:34;;;;;;;;;;;;;;;;;;5372976;26;20259;-66
2024/04/17 10:12:00;;;;;;;;;;;;;;;;;;5373810;26;19947;-66
2024/04/17 10:14:25;;;;;;;;;;;;;;;;;;5404973;26;19936;-66
2024/04/17 10:16:52;;;;;;;;;;;;;;;;;;5406495;26;19929;-66
2024/04/17 10:19:17;;;;;;;;;;;;;;;;;;5384343;26;20001;-66
2024/04/17 10:21:48;;;;;;;;;;;;;;;;;;5374662;26;19973;-66
2024/04/17 10:24:18;;;;;;;;;;;;;;;;;;5406675;26;19935;-65
2024/04/17 10:26:44;;;;;;;;;;;;;;;;;;5374003;26;20096;-66
2024/04/17 10:29:11;;;;;;;;;;;;;;;;;;5408190;26;19936;-65
2024/04/17 10:31:37;;;;;;;;;;;;;;;;;;5405472;26;19935;-67
2024/04/17 10:34:06;;;;;;;;;;;;;;;;;;5371081;26;20260;-66
2024/04/17 10:36:33;;;;;;;;;;;;;;;;;;5352129;26;19945;-66
2024/04/17 10:38:59;;;;;;;;;;;;;;;;;;5369215;26;19948;-67
2024/04/17 10:41:24;;;;;;;;;;;;;;;;;;5375270;26;20312;-67
2024/04/17 10:43:50;;;;;;;;;;;;;;;;;;5372336;26;21139;-65
2024/04/17 10:46:15;;;;;;;;;;;;;;;;;;5371241;26;19936;-66
2024/04/17 10:48:43;;;;;;;;;;;;;;;;;;5339885;26;20376;-68
2024/04/17 10:51:09;;;;;;;;;;;;;;;;;;5369155;26;19936;-67
2024/04/17 10:53:34;;;;;;;;;;;;;;;;;;5365399;26;19937;-68
2024/04/17 10:55:59;;;;;;;;;;;;;;;;;;5366610;26;19937;-65
2024/04/17 10:58:25;;;;;;;;;;;;;;;;;;5369086;26;19928;-66
2024/04/17 11:00:56;;;;;;;;;;;;;;;;;;5366583;26;20477;-66
2024/04/17 11:03:21;;;;;;;;;;;;;;;;;;5333664;26;20002;-65
2024/04/17 11:05:49;;;;;;;;;;;;;;;;;;5371327;26;19937;-67
2024/04/17 11:08:14;;;;;;;;;;;;;;;;;;5346257;26;19937;-66
2024/04/17 11:10:42;;;;;;;;;;;;;;;;;;5335918;26;20221;-66
2024/04/17 11:13:10;;;;;;;;;;;;;;;;;;5367367;26;19949;-66
2024/04/17 11:15:38;;;;;;;;;;;;;;;;;;5366895;26;20049;-66
2024/04/17 11:18:03;;;;;;;;;;;;;;;;;;5341731;26;19945;-67
2024/04/17 11:20:29;;;;;;;;;;;;;;;;;;5366390;26;20312;-68
2024/04/17 11:22:54;;;;;;;;;;;;;;;;;;5368237;26;19936;-67
2024/04/17 11:25:19;;;;;;;;;;;;;;;;;;5369284;26;19973;-67
2024/04/17 11:27:45;;;;;;;;;;;;;;;;;;5368116;26;19997;-67
2024/04/17 11:30:10;;;;;;;;;;;;;;;;;;5340753;26;19933;-67
2024/04/17 11:32:37;;;;;;;;;;;;;;;;;;5369718;26;19936;-66
2024/04/17 11:35:05;;;;;;;;;;;;;;;;;;5369145;26;20015;-66
2024/04/17 11:37:30;;;;;;;;;;;;;;;;;;5359280;26;21043;-67
2024/04/17 11:39:58;;;;;;;;;;;;;;;;;;5358685;26;19992;-66
2024/04/17 11:42:23;;;;;;;;;;;;;;;;;;5368438;26;19941;-68
2024/04/17 11:44:51;;;;;;;;;;;;;;;;;;5335900;26;19951;-68
2024/04/17 11:47:25;;;;;;;;;;;;;;;;;;5364516;26;20014;-66
2024/04/17 11:49:50;;;;;;;;;;;;;;;;;;5345084;26;21084;-67
2024/04/17 11:52:19;;;;;;;;;;;;;;;;;;5370631;26;20606;-66
2024/04/17 11:54:44;;;;;;;;;;;;;;;;;;5367504;26;19937;-67
2024/04/17 11:57:09;;;;;;;;;;;;;;;;;;5369027;26;19936;-67
2024/04/17 11:59:34;;;;;;;;;;;;;;;;;;5340250;26;19944;-65
2024/04/17 12:02:00;;;;;;;;;;;;;;;;;;5365501;26;19936;-68
2024/04/17 12:04:28;;;;;;;;;;;;;;;;;;5341055;26;19937;-66
2024/04/17 12:06:54;;;;;;;;;;;;;;;;;;5367358;26;19937;-66
2024/04/17 12:09:22;;;;;;;;;;;;;;;;;;5339966;26;19929;-65
2024/04/17 12:11:47;;;;;;;;;;;;;;;;;;5340875;26;20902;-67
2024/04/17 12:14:12;;;;;;;;;;;;;;;;;;5348053;26;20342;-66
2024/04/17 12:16:40;;;;;;;;;;;;;;;;;;5339956;26;19937;-66
2024/04/17 12:19:05;;;;;;;;;;;;;;;;;;5370852;26;19944;-66
2024/04/17 12:21:31;;;;;;;;;;;;;;;;;;5370813;26;20497;-67
2024/04/17 12:23:56;;;;;;;;;;;;;;;;;;5371705;26;20413;-68
2024/04/17 12:29:08;;;;;;;;;;;;;;;;;;5372102;26;19987;-67
2024/04/17 12:31:36;;;;;;;;;;;;;;;;;;5350173;26;20132;-67
2024/04/17 12:34:01;;;;;;;;;;;;;;;;;;5341623;26;19976;-67
2024/04/17 12:36:26;;;;;;;;;;;;;;;;;;5370486;26;20657;-68
2024/04/17 12:38:51;;;;;;;;;;;;;;;;;;5374145;26;20324;-66
2024/04/17 12:41:17;;;;;;;;;;;;;;;;;;5368479;26;19997;-67
2024/04/17 12:43:42;;;;;;;;;;;;;;;;;;5374114;26;19941;-67
2024/04/17 12:46:07;;;;;;;;;;;;;;;;;;5371446;26;19998;-67
2024/04/17 12:48:33;;;;;;;;;;;;;;;;;;5370835;26;19974;-68
2024/04/17 12:50:58;;;;;;;;;;;;;;;;;;5370430;26;19939;-67
2024/04/17 12:53:26;;;;;;;;;;;;;;;;;;5374560;26;20718;-67
2024/04/17 12:55:52;;;;;;;;;;;;;;;;;;5378833;26;19936;-68
2024/04/17 12:58:17;;;;;;;;;;;;;;;;;;5407295;26;19929;-68
2024/04/17 13:00:45;;;;;;;;;;;;;;;;;;5405174;26;19943;-68
2024/04/17 13:03:11;;;;;;;;;;;;;;;;;;5369564;26;19929;-67
2024/04/17 13:05:36;;;;;;;;;;;;;;;;;;5375169;26;19940;-67
2024/04/17 13:08:01;;;;;;;;;;;;;;;;;;5381402;26;20687;-67
2024/04/17 13:10:27;;;;;;;;;;;;;;;;;;5392145;26;20714;-66
2024/04/17 13:12:53;;;;;;;;;;;;;;;;;;5404922;26;19928;-67
2024/04/17 13:15:27;;;;;;;;;;;;;;;;;;5405290;26;20032;-67
2024/04/17 13:17:53;;;;;;;;;;;;;;;;;;5406714;26;20027;-70
2024/04/17 13:20:18;;;;;;;;;;;;;;;;;;5348455;26;19936;-66
2024/04/17 13:22:43;;;;;;;;;;;;;;;;;;5377680;26;20934;-67
2024/04/17 13:25:09;;;;;;;;;;;;;;;;;;5406741;26;20282;-67
2024/04/17 13:27:36;;;;;;;;;;;;;;;;;;5375680;26;20270;-67
2024/04/17 13:30:01;;;;;;;;;;;;;;;;;;5377672;26;20004;-67
2024/04/17 13:32:26;;;;;;;;;;;;;;;;;;5357144;26;19936;-68
2024/04/17 13:34:57;;;;;;;;;;;;;;;;;;5404534;26;20411;-68
2024/04/17 13:37:24;;;;;;;;;;;;;;;;;;5348994;26;19937;-67
2024/04/17 13:39:49;;;;;;;;;;;;;;;;;;5373142;26;19929;-68
2024/04/17 13:42:15;;;;;;;;;;;;;;;;;;5404478;26;22696;-67
2024/04/17 13:44:40;;;;;;;;;;;;;;;;;;5377969;26;20866;-67
2024/04/17 13:47:06;;;;;;;;;;;;;;;;;;5403320;26;20465;-67
2024/04/17 13:49:31;;;;;;;;;;;;;;;;;;5349858;26;19944;-67
2024/04/17 13:51:56;;;;;;;;;;;;;;;;;;5403250;26;19998;-68
2024/04/17 13:54:21;;;;;;;;;;;;;;;;;;5366164;26;20325;-69
2024/04/17 13:56:49;;;;;;;;;;;;;;;;;;5366712;26;19929;-68
2024/04/17 13:59:15;;;;;;;;;;;;;;;;;;5367336;26;20000;-68
2024/04/17 14:01:40;;;;;;;;;;;;;;;;;;5368150;26;20039;-68
2024/04/17 14:04:08;;;;;;;;;;;;;;;;;;5367693;26;19960;-68
2024/04/17 14:06:33;;;;;;;;;;;;;;;;;;5367636;26;20587;-70
2024/04/17 14:08:59;;;;;;;;;;;;;;;;;;5359422;26;19933;-68
2024/04/17 14:11:33;;;;;;;;;;;;;;;;;;5369825;26;20310;-69
2024/04/17 14:14:00;;;;;;;;;;;;;;;;;;5355077;26;20016;-68
2024/04/17 14:16:27;;;;;;;;;;;;;;;;;;5366443;26;22406;-69
2024/04/17 14:18:53;;;;;;;;;;;;;;;;;;5335379;26;19929;-67
2024/04/17 14:21:18;;;;;;;;;;;;;;;;;;5368449;26;19949;-68
2024/04/17 14:23:43;;;;;;;;;;;;;;;;;;5336823;26;19928;-68
2024/04/17 14:26:12;;;;;;;;;;;;;;;;;;5336242;26;19938;-69
2024/04/17 14:28:37;;;;;;;;;;;;;;;;;;5367324;26;19929;-69
2024/04/17 14:31:05;;;;;;;;;;;;;;;;;;5367902;26;20361;-68
2024/04/17 14:33:33;;;;;;;;;;;;;;;;;;5370407;26;19937;-67
2024/04/17 14:35:58;;;;;;;;;;;;;;;;;;5366888;26;19936;-68
2024/04/17 14:38:23;;;;;;;;;;;;;;;;;;5368428;26;19938;-68
2024/04/17 14:40:49;;;;;;;;;;;;;;;;;;5355550;26;20773;-67
2024/04/17 14:43:16;;;;;;;;;;;;;;;;;;5340294;26;19928;-67
2024/04/17 14:45:42;;;;;;;;;;;;;;;;;;5369152;26;20422;-68
2024/04/17 14:48:07;;;;;;;;;;;;;;;;;;5368636;26;19965;-68
2024/04/17 14:50:32;;;;;;;;;;;;;;;;;;5368179;26;20320;-68
2024/04/17 14:53:05;;;;;;;;;;;;;;;;;;5366018;26;20728;-68
2024/04/17 14:55:33;;;;;;;;;;;;;;;;;;5370985;26;20670;-67
2024/04/17 14:57:58;;;;;;;;;;;;;;;;;;5391951;26;21042;-67
2024/04/17 15:00:23;;;;;;;;;;;;;;;;;;5357134;26;19964;-68
2024/04/17 15:02:48;;;;;;;;;;;;;;;;;;5381214;26;19930;-68
2024/04/17 15:05:14;;;;;;;;;;;;;;;;;;5374763;26;19940;-68
2024/04/17 15:07:39;;;;;;;;;;;;;;;;;;5374794;26;21529;-68
2024/04/17 15:10:07;;;;;;;;;;;;;;;;;;5383156;26;19930;-68
2024/04/17 15:12:32;;;;;;;;;;;;;;;;;;5337246;26;19937;-67
2024/04/17 15:15:00;;;;;;;;;;;;;;;;;;5383867;26;20033;-67
2024/04/17 15:17:26;;;;;;;;;;;;;;;;;;5365331;26;21400;-67
2024/04/17 15:19:51;;;;;;;;;;;;;;;;;;5359698;26;19929;-67
2024/04/17 15:22:19;;;;;;;;;;;;;;;;;;5338965;26;20694;-68
2024/04/17 15:24:46;;;;;;;;;;;;;;;;;;5371964;26;19965;-68
2024/04/17 15:27:12;;;;;;;;;;;;;;;;;;5371162;26;22411;-68
2024/04/17 15:29:37;;;;;;;;;;;;;;;;;;5387382;26;19937;-67
2024/04/17 15:32:06;;;;;;;;;;;;;;;;;;5371188;26;19945;-67
2024/04/17 15:34:32;;;;;;;;;;;;;;;;;;5371688;26;19929;-67
2024/04/17 15:37:00;;;;;;;;;;;;;;;;;;5377169;26;19944;-68
2024/04/17 15:39:25;;;;;;;;;;;;;;;;;;5344933;26;19997;-67
2024/04/17 15:41:53;;;;;;;;;;;;;;;;;;5345955;26;20466;-66
2024/04/17 15:44:19;;;;;;;;;;;;;;;;;;5377716;26;21140;-68
2024/04/17 15:46:44;;;;;;;;;;;;;;;;;;5372742;26;19930;-68
2024/04/17 15:49:15;;;;;;;;;;;;;;;;;;5372751;26;19937;-68
2024/04/17 15:51:41;;;;;;;;;;;;;;;;;;5370522;26;19930;-67
2024/04/17 15:54:06;;;;;;;;;;;;;;;;;;5373782;26;19943;-67
2024/04/17 15:56:32;;;;;;;;;;;;;;;;;;5340196;26;20598;-67
2024/04/17 15:59:02;;;;;;;;;;;;;;;;;;5372907;26;19937;-68
2024/04/17 16:01:27;;;;;;;;;;;;;;;;;;5309710;26;19940;-68
2024/04/17 16:03:55;;;;;;;;;;;;;;;;;;5345858;26;19929;-68
2024/04/17 16:06:23;;;;;;;;;;;;;;;;;;5326140;26;19993;-69
2024/04/17 16:08:49;;;;;;;;;;;;;;;;;;5315748;26;19941;-67
2024/04/17 16:11:15;;;;;;;;;;;;;;;;;;5338663;26;19965;-69
2024/04/17 16:13:40;;;;;;;;;;;;;;;;;;5337594;26;19944;-69
2024/04/17 16:16:06;;;;;;;;;;;;;;;;;;5362495;26;19936;-69
2024/04/17 16:18:33;;;;;;;;;;;;;;;;;;5340720;26;20305;-68
2024/04/17 16:21:01;;;;;;;;;;;;;;;;;;5312777;26;20321;-69
2024/04/17 16:23:33;;;;;;;;;;;;;;;;;;5341265;26;19962;-67
2024/04/17 16:25:58;;;;;;;;;;;;;;;;;;5341171;26;20028;-70
2024/04/17 16:28:34;;;;;;;;;;;;;;;;;;5341034;26;19948;-68
2024/04/17 16:31:01;;;;;;;;;;;;;;;;;;5372544;26;19937;-67
2024/04/17 16:33:27;;;;;;;;;;;;;;;;;;5346043;26;19936;-68
2024/04/17 16:35:58;;;;;;;;;;;;;;;;;;5308531;26;19933;-69
2024/04/17 16:38:26;;;;;;;;;;;;;;;;;;5339481;26;19941;-68
2024/04/17 16:40:52;;;;;;;;;;;;;;;;;;5368072;26;20027;-69
2024/04/17 16:43:17;;;;;;;;;;;;;;;;;;5373783;26;19942;-68